Time;durP1;ratioP1;P1;durP2;ratioP2;P2;SDS_P1;SDS_P2;PMS_P1;PMS_P2;Temp;Humidity;BMP_temperature;BMP_pressure;BME280_temperature;BME280_humidity;BME280_pressure;Samples;Min_cycle;Max_cycle;Signal;HPM_P1;HPM_P2
2022/02/22 00:00:14;;;;;;;26.08;4.95;;;7.20;99.90;;;;;;5077162;28;20033;-42
2022/02/22 00:02:41;;;;;;;26.55;4.68;;;7.20;99.90;;;;;;5081843;28;20024;-43
2022/02/22 00:05:07;;;;;;;13.93;4.32;;;7.20;99.90;;;;;;5078556;28;20037;-43
2022/02/22 00:07:33;;;;;;;22.20;4.38;;;7.30;99.90;;;;;;5078771;28;20491;-42
2022/02/22 00:09:58;;;;;;;22.60;4.97;;;7.30;99.90;;;;;;5084861;28;20060;-43
2022/02/22 00:12:24;;;;;;;33.35;4.95;;;7.30;99.90;;;;;;5080458;28;20115;-43
2022/02/22 00:14:50;;;;;;;28.00;4.75;;;7.30;99.90;;;;;;5086328;28;20451;-42
2022/02/22 00:17:15;;;;;;;21.25;4.07;;;7.30;99.90;;;;;;5076957;28;20035;-43
2022/02/22 00:19:41;;;;;;;21.60;3.95;;;7.20;99.90;;;;;;5087772;28;20028;-41
2022/02/22 00:22:07;;;;;;;22.42;4.25;;;7.30;99.90;;;;;;5077032;28;20027;-43
2022/02/22 00:24:33;;;;;;;18.60;3.80;;;7.20;99.90;;;;;;5088049;28;20032;-42
2022/02/22 00:26:58;;;;;;;24.70;4.88;;;7.20;99.90;;;;;;5076359;28;20051;-42
2022/02/22 00:29:24;;;;;;;18.70;4.57;;;7.20;99.90;;;;;;5087373;28;20065;-43
2022/02/22 00:31:49;;;;;;;22.88;4.05;;;7.20;99.90;;;;;;5076287;28;20020;-43
2022/02/22 00:34:15;;;;;;;20.45;3.88;;;7.20;99.90;;;;;;5088235;28;20093;-43
2022/02/22 00:36:42;;;;;;;21.67;4.72;;;7.10;99.90;;;;;;5076816;28;20112;-42
2022/02/22 00:39:07;;;;;;;22.08;3.67;;;7.10;99.90;;;;;;5087355;28;20020;-43
2022/02/22 00:41:33;;;;;;;25.02;4.72;;;7.10;99.90;;;;;;5079396;28;20376;-42
2022/02/22 00:43:59;;;;;;;22.45;4.00;;;7.00;99.90;;;;;;5083975;28;20039;-41
2022/02/22 00:46:24;;;;;;;25.13;4.35;;;7.00;99.90;;;;;;5082299;28;20460;-42
2022/02/22 00:48:49;;;;;;;20.30;3.65;;;6.90;99.90;;;;;;5081469;28;20054;-42
2022/02/22 00:51:15;;;;;;;26.77;4.53;;;6.80;99.90;;;;;;5083797;28;20047;-43
2022/02/22 00:53:40;;;;;;;18.90;4.13;;;6.80;99.90;;;;;;5078605;28;20142;-41
2022/02/22 00:56:06;;;;;;;23.00;3.80;;;6.70;99.90;;;;;;5085973;28;20044;-42
2022/02/22 00:58:32;;;;;;;29.33;5.10;;;6.70;99.90;;;;;;5076347;28;20016;-40
2022/02/22 01:00:57;;;;;;;28.20;4.45;;;6.70;99.90;;;;;;5086867;28;20463;-42
2022/02/22 01:03:23;;;;;;;28.67;5.65;;;6.70;99.90;;;;;;5075594;28;20019;-42
2022/02/22 01:05:48;;;;;;;23.30;3.95;;;6.70;99.90;;;;;;5088555;28;20038;-42
2022/02/22 01:08:15;;;;;;;32.78;5.32;;;6.70;99.90;;;;;;5074958;28;21004;-43
2022/02/22 01:10:41;;;;;;;21.83;4.18;;;6.70;99.90;;;;;;5087454;28;20259;-42
2022/02/22 01:13:07;;;;;;;19.45;4.32;;;6.70;99.90;;;;;;5074812;28;20500;-41
2022/02/22 01:15:32;;;;;;;24.30;4.47;;;6.70;99.90;;;;;;5087256;28;20044;-42
2022/02/22 01:17:58;;;;;;;34.13;5.10;;;6.60;99.90;;;;;;5076721;28;20043;-41
2022/02/22 01:20:23;;;;;;;28.30;5.18;;;6.70;99.90;;;;;;5084311;28;20028;-42
2022/02/22 01:22:52;;;;;;;30.60;4.78;;;6.60;99.90;;;;;;5080374;28;20074;-43
2022/02/22 01:25:19;;;;;;;25.50;4.90;;;6.60;99.90;;;;;;5081896;28;20047;-42
2022/02/22 01:27:45;;;;;;;29.50;5.25;;;6.60;99.90;;;;;;5082171;28;20027;-42
2022/02/22 01:30:10;;;;;;;24.52;5.38;;;6.50;99.90;;;;;;5079829;28;20391;-43
2022/02/22 01:32:36;;;;;;;18.70;4.30;;;6.40;99.90;;;;;;5083942;28;20019;-42
2022/02/22 01:35:03;;;;;;;18.55;3.95;;;6.40;99.90;;;;;;5077355;28;20635;-42
2022/02/22 01:37:28;;;;;;;16.67;4.05;;;6.40;99.90;;;;;;5085010;28;21175;-42
2022/02/22 01:39:54;;;;;;;26.85;4.53;;;6.30;99.90;;;;;;5075810;28;20116;-43
2022/02/22 01:42:20;;;;;;;24.83;4.30;;;6.30;99.90;;;;;;5084877;28;20035;-41
2022/02/22 01:44:47;;;;;;;20.75;4.47;;;6.20;99.90;;;;;;5076043;28;20028;-43
2022/02/22 01:47:16;;;;;;;22.83;3.78;;;6.20;99.90;;;;;;5086353;28;20490;-43
2022/02/22 01:49:42;;;;;;;23.23;4.25;;;6.10;99.90;;;;;;5078064;28;20020;-42
2022/02/22 01:52:07;;;;;;;22.52;4.32;;;6.10;99.90;;;;;;5086698;28;20495;-41
2022/02/22 01:54:34;;;;;;;23.83;5.30;;;6.10;99.90;;;;;;5073026;28;20037;-42
2022/02/22 01:56:59;;;;;;;24.92;4.30;;;6.10;99.90;;;;;;5087294;28;20584;-42
2022/02/22 01:59:25;;;;;;;19.35;4.47;;;6.00;99.90;;;;;;5074602;28;20039;-43
2022/02/22 02:01:51;;;;;;;23.05;4.40;;;6.00;99.90;;;;;;5085559;28;20107;-43
2022/02/22 02:04:16;;;;;;;26.70;4.07;;;5.90;99.90;;;;;;5078444;28;20032;-43
2022/02/22 02:06:42;;;;;;;23.70;4.57;;;5.90;99.90;;;;;;5081552;28;20107;-43
2022/02/22 02:09:09;;;;;;;23.95;4.63;;;5.80;99.90;;;;;;5081058;28;20036;-43
2022/02/22 02:11:49;;;;;;;25.48;4.43;;;5.90;99.90;;;;;;5079430;28;20540;-42
2022/02/22 02:14:15;;;;;;;27.48;4.88;;;5.80;99.90;;;;;;5080191;28;20104;-44
2022/02/22 02:16:41;;;;;;;28.13;4.78;;;5.80;99.90;;;;;;5079362;28;20053;-43
2022/02/22 02:19:13;;;;;;;20.92;4.18;;;5.80;99.90;;;;;;5083723;28;20028;-42
2022/02/22 02:21:40;;;;;;;15.23;2.65;;;5.70;99.90;;;;;;5076708;28;20035;-43
2022/02/22 02:24:16;;;;;;;15.07;3.15;;;5.70;99.90;;;;;;5085212;28;20475;-43
2022/02/22 02:26:43;;;;;;;21.52;3.60;;;5.60;99.90;;;;;;5076270;28;20580;-43
2022/02/22 02:29:10;;;;;;;18.83;3.38;;;5.60;99.90;;;;;;5084089;28;20025;-42
2022/02/22 02:31:40;;;;;;;23.63;4.43;;;5.60;99.90;;;;;;5073846;28;20383;-42
2022/02/22 02:34:07;;;;;;;13.50;2.88;;;5.50;99.90;;;;;;5085017;28;20483;-42
2022/02/22 02:36:34;;;;;;;19.10;3.38;;;5.50;99.90;;;;;;5074182;28;20038;-41
2022/02/22 02:39:02;;;;;;;21.75;3.78;;;5.50;99.90;;;;;;5086611;28;20016;-42
2022/02/22 02:41:27;;;;;;;22.80;4.05;;;5.50;99.90;;;;;;5072869;28;20612;-42
2022/02/22 02:43:53;;;;;;;20.10;4.05;;;5.40;99.90;;;;;;5085387;28;20107;-44
2022/02/22 02:46:19;;;;;;;20.73;4.53;;;5.40;99.90;;;;;;5072977;28;20024;-44
2022/02/22 02:48:44;;;;;;;23.00;4.57;;;5.40;99.90;;;;;;5085557;28;20028;-43
2022/02/22 02:51:09;;;;;;;20.42;3.80;;;5.40;99.90;;;;;;5077182;28;20028;-43
2022/02/22 02:53:36;;;;;;;18.92;3.28;;;5.30;99.90;;;;;;5067545;28;20254;-43
2022/02/22 02:56:01;;;;;;;26.13;4.15;;;5.30;99.90;;;;;;5073301;28;20039;-42
2022/02/22 02:58:27;;;;;;;22.77;4.35;;;5.30;99.90;;;;;;5069655;28;20444;-43
2022/02/22 03:00:52;;;;;;;20.35;3.97;;;5.30;99.90;;;;;;5071399;28;20079;-43
2022/02/22 03:03:18;;;;;;;27.15;3.80;;;5.20;99.90;;;;;;5071618;28;20032;-42
2022/02/22 03:05:43;;;;;;;20.98;4.20;;;5.20;99.90;;;;;;5068610;28;20379;-42
2022/02/22 03:08:09;;;;;;;19.83;3.22;;;5.20;99.90;;;;;;5074669;28;20464;-42
2022/02/22 03:10:34;;;;;;;24.60;3.78;;;5.20;99.90;;;;;;5066051;28;20038;-42
2022/02/22 03:13:00;;;;;;;35.45;4.45;;;5.20;99.90;;;;;;5077103;28;20036;-42
2022/02/22 03:15:25;;;;;;;21.60;3.97;;;5.20;99.90;;;;;;5066119;28;20040;-43
2022/02/22 03:17:51;;;;;;;22.55;4.35;;;5.10;99.90;;;;;;5075983;28;20030;-43
2022/02/22 03:20:19;;;;;;;17.73;2.95;;;5.20;99.90;;;;;;5065060;28;20039;-44
2022/02/22 03:22:45;;;;;;;23.42;3.75;;;5.20;99.90;;;;;;5077706;28;20028;-41
2022/02/22 03:25:11;;;;;;;24.45;4.07;;;5.10;99.90;;;;;;5064361;28;20029;-42
2022/02/22 03:27:37;;;;;;;25.42;4.45;;;5.10;99.90;;;;;;5077767;28;20115;-43
2022/02/22 03:30:04;;;;;;;25.75;4.47;;;5.10;99.90;;;;;;5065956;28;20447;-43
2022/02/22 03:32:30;;;;;;;21.67;4.35;;;5.10;99.90;;;;;;5075009;28;20039;-43
2022/02/22 03:34:55;;;;;;;17.05;3.55;;;5.10;99.90;;;;;;5067594;28;20052;-41
2022/02/22 03:37:21;;;;;;;22.20;3.58;;;5.10;99.90;;;;;;5072923;28;20030;-43
2022/02/22 03:39:46;;;;;;;14.63;3.08;;;5.10;99.90;;;;;;5069210;28;20055;-41
2022/02/22 03:42:12;;;;;;;19.70;3.40;;;5.10;99.90;;;;;;5070365;28;20028;-42
2022/02/22 03:44:37;;;;;;;26.13;4.78;;;5.10;99.90;;;;;;5076200;28;20716;-43
2022/02/22 03:47:03;;;;;;;29.38;3.95;;;5.10;99.90;;;;;;5071570;28;20371;-42
2022/02/22 03:49:29;;;;;;;21.95;3.70;;;5.10;99.90;;;;;;5078640;28;20066;-43
2022/02/22 03:51:54;;;;;;;20.67;4.13;;;5.10;99.90;;;;;;5069968;28;20066;-43
2022/02/22 03:54:20;;;;;;;16.05;2.97;;;5.10;99.90;;;;;;5079798;28;20056;-42
2022/02/22 03:56:45;;;;;;;17.75;3.05;;;5.10;99.90;;;;;;5069939;28;20029;-42
2022/02/22 03:59:12;;;;;;;20.42;3.42;;;5.10;99.90;;;;;;5079885;28;20569;-42
2022/02/22 04:01:37;;;;;;;17.58;3.50;;;5.10;99.90;;;;;;5068999;28;20032;-41
2022/02/22 04:04:03;;;;;;;13.98;3.03;;;5.10;99.90;;;;;;5082134;28;20024;-43
2022/02/22 04:06:28;;;;;;;15.50;3.38;;;5.10;99.90;;;;;;5067844;28;20048;-42
2022/02/22 04:08:54;;;;;;;10.85;2.38;;;5.10;99.90;;;;;;5080797;28;20028;-42
2022/02/22 04:11:19;;;;;;;14.20;2.67;;;5.10;99.90;;;;;;5069108;28;20036;-42
2022/02/22 04:13:45;;;;;;;14.70;2.63;;;5.10;99.90;;;;;;5077553;28;20081;-42
2022/02/22 04:16:10;;;;;;;16.40;2.50;;;5.10;99.90;;;;;;5071207;28;20484;-42
2022/02/22 04:18:36;;;;;;;16.50;2.83;;;5.10;99.90;;;;;;5075365;28;20026;-42
2022/02/22 04:21:01;;;;;;;14.98;2.60;;;5.10;99.90;;;;;;5073134;28;20033;-42
2022/02/22 04:23:27;;;;;;;14.57;2.95;;;5.10;99.90;;;;;;5072449;28;20028;-42
2022/02/22 04:25:52;;;;;;;16.02;2.70;;;5.10;99.90;;;;;;5077266;28;20368;-42
2022/02/22 04:28:18;;;;;;;17.13;2.80;;;5.10;99.90;;;;;;5068698;28;20476;-42
2022/02/22 04:30:45;;;;;;;14.05;2.72;;;5.00;99.90;;;;;;5079705;28;20024;-43
2022/02/22 04:33:10;;;;;;;16.85;2.47;;;5.00;99.90;;;;;;5069395;28;20283;-43
2022/02/22 04:35:35;;;;;;;15.68;2.65;;;5.00;99.90;;;;;;5078484;28;20551;-43
2022/02/22 04:38:01;;;;;;;14.27;2.70;;;5.00;99.90;;;;;;5068591;28;20028;-41
2022/02/22 04:40:29;;;;;;;12.98;2.75;;;5.00;99.90;;;;;;5080692;28;20374;-41
2022/02/22 04:42:55;;;;;;;17.92;3.25;;;4.90;99.90;;;;;;5067962;28;20051;-42
2022/02/22 04:45:20;;;;;;;12.10;2.25;;;5.00;99.90;;;;;;5080368;28;20112;-41
2022/02/22 04:47:46;;;;;;;21.17;3.17;;;5.00;99.90;;;;;;5068534;28;20073;-43
2022/02/22 04:50:11;;;;;;;18.40;3.63;;;4.90;99.90;;;;;;5080231;28;20024;-41
2022/02/22 04:52:37;;;;;;;14.27;2.90;;;4.90;99.90;;;;;;5067468;28;20129;-41
2022/02/22 04:55:06;;;;;;;11.65;2.38;;;4.90;99.90;;;;;;5075388;28;20067;-43
2022/02/22 04:57:36;;;;;;;12.52;2.20;;;4.90;99.90;;;;;;5070384;28;20035;-41
2022/02/22 05:00:07;;;;;;;9.38;2.15;;;4.90;99.90;;;;;;5074898;28;20039;-43
2022/02/22 05:02:33;;;;;;;23.08;5.75;;;4.80;99.90;;;;;;5071554;28;20765;-42
2022/02/22 05:04:58;;;;;;;21.58;3.80;;;4.80;99.90;;;;;;5073524;28;20024;-41
2022/02/22 05:07:24;;;;;;;17.52;2.75;;;4.70;99.90;;;;;;5074287;28;20490;-42
2022/02/22 05:09:49;;;;;;;15.77;3.03;;;4.70;99.90;;;;;;5069937;28;20024;-42
2022/02/22 05:12:15;;;;;;;14.93;2.53;;;4.70;99.90;;;;;;5077239;28;20573;-42
2022/02/22 05:14:40;;;;;;;14.90;3.00;;;4.70;99.90;;;;;;5069424;28;20445;-42
2022/02/22 05:17:06;;;;;;;11.18;2.42;;;4.60;99.90;;;;;;5078440;28;20032;-42
2022/02/22 05:19:31;;;;;;;12.70;2.65;;;4.60;99.90;;;;;;5068248;28;20480;-42
2022/02/22 05:21:57;;;;;;;16.52;2.80;;;4.60;99.90;;;;;;5079280;28;20039;-43
2022/02/22 05:24:22;;;;;;;14.45;3.25;;;4.50;99.90;;;;;;5066659;28;20094;-43
2022/02/22 05:26:48;;;;;;;12.07;2.45;;;4.50;99.90;;;;;;5080245;28;20467;-43
2022/02/22 05:29:14;;;;;;;9.63;2.67;;;4.50;99.90;;;;;;5067102;28;20032;-43
2022/02/22 05:31:39;;;;;;;15.25;2.75;;;4.40;99.90;;;;;;5078781;28;20441;-42
2022/02/22 05:34:05;;;;;;;21.80;3.83;;;4.40;99.90;;;;;;5067248;28;20056;-41
2022/02/22 05:36:30;;;;;;;23.42;3.60;;;4.40;99.90;;;;;;5076352;28;20038;-43
2022/02/22 05:38:56;;;;;;;15.73;3.22;;;4.40;99.90;;;;;;5070218;28;20040;-44
2022/02/22 05:41:21;;;;;;;18.20;3.42;;;4.40;99.90;;;;;;5073556;28;20028;-43
2022/02/22 05:43:50;;;;;;;15.90;3.03;;;4.40;99.90;;;;;;5072761;28;20027;-41
2022/02/22 05:46:16;;;;;;;15.93;3.22;;;4.40;99.90;;;;;;5070758;28;20016;-42
2022/02/22 05:48:42;;;;;;;20.38;3.83;;;4.40;99.90;;;;;;5074651;28;20028;-41
2022/02/22 05:51:09;;;;;;;18.73;3.85;;;4.50;99.90;;;;;;5068864;28;20012;-43
2022/02/22 05:53:35;;;;;;;15.65;3.92;;;4.50;99.90;;;;;;5075953;28;20407;-43
2022/02/22 05:56:01;;;;;;;19.15;3.47;;;4.50;99.90;;;;;;5068124;28;20031;-43
2022/02/22 05:58:27;;;;;;;16.95;3.90;;;4.50;99.90;;;;;;5076732;28;20513;-41
2022/02/22 06:00:52;;;;;;;22.17;3.50;;;4.50;99.90;;;;;;5068414;28;20024;-42
2022/02/22 06:03:18;;;;;;;16.80;4.20;;;4.50;99.90;;;;;;5077888;28;20046;-43
2022/02/22 06:05:43;;;;;;;14.45;3.33;;;4.50;99.90;;;;;;5066067;28;20031;-43
2022/02/22 06:08:08;;;;;;;21.83;3.70;;;4.60;99.90;;;;;;5078760;28;20027;-42
2022/02/22 06:10:34;;;;;;;17.77;2.88;;;4.60;99.90;;;;;;5066452;28;20371;-43
2022/02/22 06:12:59;;;;;;;12.05;3.13;;;4.60;99.90;;;;;;5077822;28;20032;-43
2022/02/22 06:15:25;;;;;;;15.68;3.75;;;4.60;99.90;;;;;;5067078;28;20036;-42
2022/02/22 06:17:51;;;;;;;15.00;3.25;;;4.60;99.90;;;;;;5075161;28;20016;-41
2022/02/22 06:20:16;;;;;;;14.55;3.00;;;4.60;99.90;;;;;;5068652;28;20537;-43
2022/02/22 06:22:42;;;;;;;16.98;3.75;;;4.60;99.90;;;;;;5072477;28;20164;-42
2022/02/22 06:25:09;;;;;;;14.85;3.13;;;4.60;99.90;;;;;;5072090;28;20368;-42
2022/02/22 06:28:04;;;;;;;30.15;3.72;;;4.60;99.90;;;;;;5069350;28;20024;-43
2022/02/22 06:30:30;;;;;;;16.48;3.85;;;4.60;99.90;;;;;;5052318;28;20198;-41
2022/02/22 06:32:55;;;;;;;12.60;2.58;;;4.60;99.90;;;;;;5071489;28;20112;-41
2022/02/22 06:35:22;;;;;;;11.50;1.92;;;4.50;99.90;;;;;;5071921;28;20037;-41
2022/02/22 06:37:48;;;;;;;17.88;2.60;;;4.50;99.90;;;;;;5069430;28;20099;-42
2022/02/22 06:40:14;;;;;;;9.45;2.42;;;4.50;99.90;;;;;;5075073;28;20048;-42
2022/02/22 06:42:39;;;;;;;13.07;2.50;;;4.50;99.90;;;;;;5066667;28;20064;-43
2022/02/22 06:45:07;;;;;;;13.32;2.42;;;4.60;99.90;;;;;;5077829;28;20029;-43
2022/02/22 06:47:33;;;;;;;12.82;2.10;;;4.60;99.90;;;;;;5066588;28;20025;-42
2022/02/22 06:49:58;;;;;;;12.35;2.20;;;4.50;99.90;;;;;;5072415;28;20053;-42
2022/02/22 06:52:24;;;;;;;12.40;2.30;;;4.50;99.90;;;;;;5067193;28;20021;-42
2022/02/22 06:54:50;;;;;;;10.00;2.42;;;4.40;99.90;;;;;;5078217;28;20111;-42
2022/02/22 06:57:15;;;;;;;11.85;2.40;;;4.40;99.90;;;;;;5072135;28;20035;-42
2022/02/22 06:59:41;;;;;;;8.65;2.28;;;4.30;99.90;;;;;;5080211;28;20027;-42
2022/02/22 07:02:06;;;;;;;12.10;2.53;;;4.30;99.90;;;;;;5064189;28;20029;-42
2022/02/22 07:04:32;;;;;;;13.95;2.50;;;4.30;99.90;;;;;;5082899;28;20446;-41
2022/02/22 07:07:01;;;;;;;8.75;2.20;;;4.30;99.90;;;;;;5087756;28;20491;-43
2022/02/22 07:09:27;;;;;;;12.35;2.42;;;4.30;99.90;;;;;;5075726;28;20418;-42
2022/02/22 07:11:52;;;;;;;10.32;2.35;;;4.40;99.90;;;;;;5080588;28;20032;-41
2022/02/22 07:14:18;;;;;;;11.80;2.40;;;4.40;99.90;;;;;;5078050;28;20320;-42
2022/02/22 07:16:43;;;;;;;15.30;2.40;;;4.50;99.90;;;;;;5077011;28;20110;-42
2022/02/22 07:19:09;;;;;;;11.35;3.00;;;4.60;99.90;;;;;;5081174;28;20475;-43
2022/02/22 07:21:35;;;;;;;13.18;2.75;;;4.70;99.90;;;;;;5074692;28;20734;-42
2022/02/22 07:24:00;;;;;;;14.20;4.18;;;4.70;99.90;;;;;;5081824;28;20020;-42
2022/02/22 07:26:26;;;;;;;11.45;2.70;;;4.70;99.90;;;;;;5073854;28;20132;-44
2022/02/22 07:28:51;;;;;;;16.08;3.60;;;4.80;99.90;;;;;;5084582;28;20445;-43
2022/02/22 07:31:17;;;;;;;10.73;2.45;;;4.80;99.90;;;;;;5072794;28;20027;-44
2022/02/22 07:33:42;;;;;;;11.10;2.00;;;4.80;99.90;;;;;;5089406;28;20024;-44
2022/02/22 07:36:08;;;;;;;17.40;3.20;;;4.90;99.90;;;;;;5079699;28;20507;-42
2022/02/22 07:38:34;;;;;;;11.80;3.33;;;4.90;99.90;;;;;;5104343;28;20036;-42
2022/02/22 07:41:00;;;;;;;14.25;2.80;;;4.90;99.90;;;;;;5084698;28;20043;-43
2022/02/22 07:43:26;;;;;;;12.65;2.70;;;4.90;99.90;;;;;;5065105;28;20112;-42
2022/02/22 07:45:51;;;;;;;12.15;3.33;;;4.90;99.90;;;;;;5079544;28;20122;-42
2022/02/22 07:48:17;;;;;;;12.98;3.83;;;4.80;99.90;;;;;;5067710;28;20030;-41
2022/02/22 07:50:42;;;;;;;10.45;3.03;;;4.90;99.90;;;;;;5074233;28;20112;-42
2022/02/22 07:53:08;;;;;;;11.85;2.90;;;4.90;99.90;;;;;;5078911;28;20788;-42
2022/02/22 07:55:33;;;;;;;12.63;3.60;;;4.90;99.90;;;;;;5080397;28;20148;-41
2022/02/22 07:57:59;;;;;;;10.07;2.58;;;4.90;99.90;;;;;;5077096;28;20089;-41
2022/02/22 08:00:24;;;;;;;8.88;2.22;;;4.90;99.90;;;;;;5082207;28;20753;-44
2022/02/22 08:02:54;;;;;;;10.10;2.22;;;5.00;99.90;;;;;;5074040;28;20024;-43
2022/02/22 08:05:20;;;;;;;14.55;3.03;;;5.10;99.90;;;;;;5082655;28;20669;-42
2022/02/22 08:07:45;;;;;;;7.22;2.28;;;5.30;99.90;;;;;;5074278;28;20024;-42
2022/02/22 08:10:11;;;;;;;11.80;2.33;;;5.50;99.90;;;;;;5083975;28;20031;-42
2022/02/22 08:12:36;;;;;;;11.95;2.25;;;5.60;99.90;;;;;;5072354;28;20460;-43
2022/02/22 08:15:04;;;;;;;7.80;1.90;;;5.80;99.90;;;;;;5084824;28;20027;-43
2022/02/22 08:17:29;;;;;;;12.88;2.78;;;5.90;99.90;;;;;;5071956;28;20025;-42
2022/02/22 08:19:55;;;;;;;11.93;2.10;;;6.00;99.90;;;;;;5084604;28;20035;-42
2022/02/22 08:22:20;;;;;;;11.93;2.53;;;6.10;99.90;;;;;;5072827;28;20532;-43
2022/02/22 08:24:46;;;;;;;14.30;2.70;;;6.20;99.90;;;;;;5083881;28;20643;-43
2022/02/22 08:27:13;;;;;;;9.15;2.45;;;6.20;99.90;;;;;;5074563;28;20029;-43
2022/02/22 08:29:38;;;;;;;7.75;2.05;;;6.30;99.90;;;;;;5082328;28;20077;-41
2022/02/22 08:32:07;;;;;;;13.65;2.67;;;6.30;99.90;;;;;;5081619;28;20033;-43
2022/02/22 08:34:32;;;;;;;14.40;2.50;;;6.40;99.90;;;;;;5082171;28;20063;-43
2022/02/22 08:36:58;;;;;;;10.70;3.08;;;6.50;99.90;;;;;;5083507;28;20117;-43
2022/02/22 08:39:25;;;;;;;16.60;2.67;;;6.50;99.90;;;;;;5080026;28;20473;-42
2022/02/22 08:41:51;;;;;;;13.02;3.33;;;6.60;99.90;;;;;;5085819;28;20024;-43
2022/02/22 08:44:17;;;;;;;16.48;2.90;;;6.70;99.90;;;;;;5077442;28;20107;-42
2022/02/22 08:46:43;;;;;;;9.05;2.42;;;6.70;99.90;;;;;;5086781;28;20028;-44
2022/02/22 08:49:09;;;;;;;13.80;3.17;;;6.80;99.90;;;;;;5075783;28;20028;-43
2022/02/22 08:51:35;;;;;;;9.40;2.75;;;6.80;99.90;;;;;;5086199;28;20040;-43
2022/02/22 08:54:02;;;;;;;7.60;2.40;;;6.90;99.90;;;;;;5075027;28;20470;-40
2022/02/22 08:56:31;;;;;;;12.15;2.92;;;6.90;99.90;;;;;;5086967;28;20071;-43
2022/02/22 08:58:56;;;;;;;12.85;3.17;;;6.90;99.90;;;;;;5075328;28;20116;-43
2022/02/22 09:01:23;;;;;;;10.75;3.15;;;7.00;99.90;;;;;;5086803;28;20165;-43
2022/02/22 09:03:49;;;;;;;13.52;3.78;;;7.00;99.90;;;;;;5075244;28;20033;-43
2022/02/22 09:06:14;;;;;;;11.18;3.33;;;7.10;99.90;;;;;;5087633;28;20837;-41
2022/02/22 09:08:40;;;;;;;11.70;3.40;;;7.20;99.90;;;;;;5076545;28;20024;-43
2022/02/22 09:11:05;;;;;;;12.02;3.10;;;7.20;99.90;;;;;;5085594;28;20520;-43
2022/02/22 09:13:31;;;;;;;19.92;4.13;;;7.30;99.90;;;;;;5079914;28;20020;-43
2022/02/22 09:15:56;;;;;;;15.27;3.70;;;7.40;99.90;;;;;;5081815;28;20032;-43
2022/02/22 09:18:22;;;;;;;15.13;3.97;;;7.40;99.90;;;;;;5081889;28;20020;-42
2022/02/22 09:20:47;;;;;;;14.93;4.40;;;7.50;99.90;;;;;;5079932;28;20020;-42
2022/02/22 09:23:13;;;;;;;13.65;4.25;;;7.60;99.90;;;;;;5084301;28;20467;-43
2022/02/22 09:25:39;;;;;;;14.73;4.03;;;7.70;99.90;;;;;;5075048;28;20031;-43
2022/02/22 09:28:09;;;;;;;16.65;4.80;;;7.80;99.90;;;;;;5086398;28;20074;-42
2022/02/22 09:30:35;;;;;;;15.93;4.65;;;7.80;99.90;;;;;;5075082;28;20031;-42
2022/02/22 09:33:02;;;;;;;18.40;5.05;;;7.90;99.90;;;;;;5086085;28;20058;-42
2022/02/22 09:35:28;;;;;;;11.93;3.70;;;7.90;99.90;;;;;;5077834;28;20531;-43
2022/02/22 09:37:56;;;;;;;12.48;3.90;;;8.00;99.90;;;;;;5066263;28;20020;-43
2022/02/22 09:40:22;;;;;;;17.80;4.15;;;8.00;99.90;;;;;;5078961;28;20048;-43
2022/02/22 09:42:48;;;;;;;11.52;3.63;;;8.00;99.90;;;;;;5067026;28;20112;-43
2022/02/22 09:45:18;;;;;;;14.20;4.15;;;8.10;99.90;;;;;;5084814;28;20111;-43
2022/02/22 09:47:44;;;;;;;17.85;5.28;;;8.10;99.90;;;;;;5088093;28;20787;-43
2022/02/22 09:50:11;;;;;;;12.23;4.13;;;8.10;99.90;;;;;;5088616;28;20055;-43
2022/02/22 09:52:37;;;;;;;11.77;4.10;;;8.10;99.90;;;;;;5065297;28;20080;-41
2022/02/22 09:55:04;;;;;;;16.58;3.65;;;8.20;99.90;;;;;;5075516;28;20463;-42
2022/02/22 09:57:29;;;;;;;11.60;3.85;;;8.20;99.90;;;;;;5069988;28;20068;-42
2022/02/22 09:59:55;;;;;;;13.57;3.95;;;8.20;99.90;;;;;;5071954;28;20058;-42
2022/02/22 10:02:21;;;;;;;16.63;5.07;;;8.20;99.90;;;;;;5072517;28;20837;-42
2022/02/22 10:04:49;;;;;;;17.15;4.57;;;8.20;99.90;;;;;;5069201;28;20032;-42
2022/02/22 10:07:15;;;;;;;16.00;3.80;;;8.10;99.90;;;;;;5074411;28;20020;-43
2022/02/22 10:09:51;;;;;;;14.93;4.95;;;8.10;99.90;;;;;;5067855;28;20024;-42
2022/02/22 10:12:27;;;;;;;15.55;4.25;;;8.10;99.90;;;;;;5075084;28;20039;-44
2022/02/22 10:14:55;;;;;;;17.20;4.50;;;8.10;99.90;;;;;;5082623;28;20493;-42
2022/02/22 10:17:20;;;;;;;18.38;5.00;;;8.20;99.90;;;;;;5073672;28;20028;-42
2022/02/22 10:19:57;;;;;;;12.25;3.67;;;8.20;99.90;;;;;;5083555;28;20499;-42
2022/02/22 10:22:23;;;;;;;18.58;5.68;;;8.20;99.90;;;;;;5074637;28;20449;-44
2022/02/22 10:24:48;;;;;;;18.40;4.13;;;8.20;99.90;;;;;;5084864;28;20048;-42
2022/02/22 10:27:14;;;;;;;12.05;3.45;;;8.30;99.90;;;;;;5074091;28;20063;-44
2022/02/22 10:29:39;;;;;;;17.48;4.07;;;8.30;99.90;;;;;;5086444;28;20035;-43
2022/02/22 10:32:16;;;;;;;16.08;4.13;;;8.30;99.90;;;;;;5073211;28;20099;-44
2022/02/22 10:34:42;;;;;;;15.02;4.30;;;8.40;99.90;;;;;;5085923;28;20035;-42
2022/02/22 10:37:08;;;;;;;15.95;3.92;;;8.40;99.90;;;;;;5073036;28;20083;-43
2022/02/22 10:39:34;;;;;;;14.10;3.90;;;8.40;99.90;;;;;;5085592;28;20024;-43
2022/02/22 10:42:00;;;;;;;19.90;4.85;;;8.40;99.90;;;;;;5073215;28;20032;-43
2022/02/22 10:44:39;;;;;;;18.02;4.50;;;8.40;99.90;;;;;;5085167;28;20051;-43
2022/02/22 10:47:18;;;;;;;16.60;4.90;;;8.40;99.90;;;;;;5073850;28;20761;-42
2022/02/22 10:49:46;;;;;;;19.98;4.50;;;8.40;99.90;;;;;;5065747;28;20503;-42
2022/02/22 10:52:12;;;;;;;16.92;3.92;;;8.40;99.90;;;;;;5075541;28;20062;-42
2022/02/22 10:54:37;;;;;;;15.25;4.35;;;8.50;99.90;;;;;;5066389;28;20055;-42
2022/02/22 10:57:03;;;;;;;21.52;4.65;;;8.50;99.90;;;;;;5073303;28;20861;-43
2022/02/22 10:59:31;;;;;;;15.23;4.10;;;8.50;99.90;;;;;;5069801;28;20039;-42
2022/02/22 11:01:58;;;;;;;14.27;4.05;;;8.50;99.90;;;;;;5071072;28;20141;-43
2022/02/22 11:04:24;;;;;;;13.65;4.15;;;8.60;99.90;;;;;;5076961;28;20023;-43
2022/02/22 11:06:49;;;;;;;15.93;4.13;;;8.60;99.90;;;;;;5094396;28;20031;-43
2022/02/22 11:09:20;;;;;;;15.45;4.15;;;8.60;99.90;;;;;;5074706;28;20774;-43
2022/02/22 11:11:49;;;;;;;22.17;4.15;;;8.60;99.90;;;;;;5096058;28;20032;-42
2022/02/22 11:14:30;;;;;;;14.23;4.30;;;8.60;99.90;;;;;;5076273;28;20517;-43
2022/02/22 11:16:58;;;;;;;13.27;3.85;;;8.70;99.90;;;;;;5065636;28;20036;-43
2022/02/22 11:19:39;;;;;;;19.10;4.32;;;8.70;99.90;;;;;;5074086;28;20106;-42
2022/02/22 11:22:14;;;;;;;18.40;4.97;;;8.80;99.90;;;;;;5083213;28;20028;-42
2022/02/22 11:24:51;;;;;;;18.33;4.80;;;8.80;99.90;;;;;;5075737;28;20024;-43
2022/02/22 11:27:30;;;;;;;21.80;4.80;;;8.80;99.90;;;;;;5083056;28;20071;-43
2022/02/22 11:30:07;;;;;;;16.58;4.28;;;8.80;99.90;;;;;;5075378;28;20024;-43
2022/02/22 11:32:34;;;;;;;20.05;4.47;;;8.70;99.90;;;;;;5082659;28;20090;-41
2022/02/22 11:35:09;;;;;;;13.23;3.88;;;8.70;99.90;;;;;;5074787;28;20077;-42
2022/02/22 11:37:35;;;;;;;14.93;4.13;;;8.60;99.90;;;;;;5082745;28;20012;-42
2022/02/22 11:40:00;;;;;;;16.42;3.80;;;8.60;99.90;;;;;;5073940;28;20379;-43
2022/02/22 11:42:30;;;;;;;24.35;5.15;;;8.60;99.90;;;;;;5082842;28;20401;-42
2022/02/22 11:45:02;;;;;;;23.58;5.57;;;8.50;99.90;;;;;;5072939;28;20025;-43
2022/02/22 11:47:29;;;;;;;17.38;4.78;;;8.50;99.90;;;;;;5084195;28;20039;-43
2022/02/22 11:49:56;;;;;;;17.50;4.78;;;8.40;99.90;;;;;;5069403;28;20017;-42
2022/02/22 11:52:38;;;;;;;23.92;5.45;;;8.30;99.90;;;;;;5063372;28;20031;-43
2022/02/22 11:55:07;;;;;;;21.52;5.20;;;8.20;99.90;;;;;;5073141;28;20046;-43
2022/02/22 11:57:43;;;;;;;23.80;4.80;;;8.20;99.90;;;;;;5084558;28;20024;-43
2022/02/22 12:00:09;;;;;;;17.60;5.50;;;8.20;99.90;;;;;;5072410;28;20120;-43
2022/02/22 12:02:41;;;;;;;19.70;4.72;;;8.10;99.90;;;;;;5085550;28;20032;-43
2022/02/22 12:05:39;;;;;;;16.15;4.18;;;8.20;99.90;;;;;;5074172;28;20059;-43
2022/02/22 12:08:07;;;;;;;17.70;4.82;;;8.20;99.90;;;;;;5088617;28;20050;-43
2022/02/22 12:10:46;;;;;;;17.75;5.10;;;8.20;99.90;;;;;;5076582;28;20017;-43
2022/02/22 12:13:22;;;;;;;25.35;5.93;;;8.20;99.90;;;;;;5087653;28;20046;-42
2022/02/22 12:15:48;;;;;;;18.75;5.63;;;8.20;99.90;;;;;;5076845;28;20032;-43
2022/02/22 12:18:16;;;;;;;22.48;6.15;;;8.20;99.90;;;;;;5087740;28;20077;-41
2022/02/22 12:20:43;;;;;;;21.60;5.78;;;8.30;99.90;;;;;;5075889;28;20705;-44
2022/02/22 12:23:24;;;;;;;22.77;6.65;;;8.30;99.90;;;;;;5088580;28;20534;-43
2022/02/22 12:25:53;;;;;;;16.17;4.90;;;8.40;99.90;;;;;;5075516;28;20021;-43
2022/02/22 12:28:21;;;;;;;15.18;5.00;;;8.50;99.90;;;;;;5088183;28;20229;-44
2022/02/22 12:30:48;;;;;;;17.27;5.10;;;8.50;99.90;;;;;;5075811;28;20112;-43
2022/02/22 12:33:16;;;;;;;17.70;5.85;;;8.60;99.90;;;;;;5087704;28;20066;-43
2022/02/22 12:35:44;;;;;;;19.95;5.22;;;8.60;99.90;;;;;;5077311;28;20602;-43
2022/02/22 12:38:23;;;;;;;17.05;5.47;;;8.60;99.90;;;;;;5086730;28;20199;-43
2022/02/22 12:40:50;;;;;;;16.63;5.30;;;8.70;99.90;;;;;;5088628;28;20032;-43
2022/02/22 12:43:17;;;;;;;26.77;6.07;;;8.70;99.90;;;;;;5069327;28;20024;-43
2022/02/22 12:45:51;;;;;;;21.10;5.90;;;8.80;99.90;;;;;;5076226;28;20016;-43